Time;durP1;ratioP1;P1;durP2;ratioP2;P2;SDS_P1;SDS_P2;PMS_P1;PMS_P2;Temp;Humidity;BMP_temperature;BMP_pressure;BME280_temperature;BME280_humidity;BME280_pressure;Samples;Min_cycle;Max_cycle;Signal;HPM_P1;HPM_P2
2021/06/01 00:00:40;;;;;;;10.40;8.93;;;13.00;99.90;;;;;;5072747;28;20447;-74
2021/06/01 00:03:07;;;;;;;12.07;9.10;;;12.90;99.90;;;;;;5072933;28;20542;-74
2021/06/01 00:05:33;;;;;;;10.00;9.03;;;12.90;99.90;;;;;;5072581;28;20568;-75
2021/06/01 00:08:01;;;;;;;9.93;8.60;;;12.80;99.90;;;;;;5072967;28;20476;-74
2021/06/01 00:10:28;;;;;;;10.77;9.30;;;12.80;99.90;;;;;;5073104;28;20529;-74
2021/06/01 00:12:54;;;;;;;11.23;9.03;;;12.70;99.90;;;;;;5072852;28;20475;-74
2021/06/01 00:15:20;;;;;;;10.43;8.93;;;12.70;99.90;;;;;;5072725;28;20566;-74
2021/06/01 00:17:46;;;;;;;8.40;7.50;;;12.70;99.90;;;;;;5072654;28;20961;-74
2021/06/01 00:20:14;;;;;;;8.83;7.93;;;12.70;99.90;;;;;;5072897;28;20871;-74
2021/06/01 00:22:40;;;;;;;11.40;8.23;;;12.70;99.90;;;;;;5072659;28;20990;-73
2021/06/01 00:25:07;;;;;;;9.17;8.27;;;12.70;99.90;;;;;;5072911;28;20475;-74
2021/06/01 00:27:34;;;;;;;9.87;8.40;;;12.70;99.90;;;;;;5072698;28;20538;-74
2021/06/01 00:30:03;;;;;;;9.90;8.30;;;12.70;99.90;;;;;;5072637;28;20455;-74
2021/06/01 00:32:29;;;;;;;10.30;7.23;;;12.70;99.90;;;;;;5072580;28;20493;-74
2021/06/01 00:34:55;;;;;;;8.80;7.87;;;12.80;99.90;;;;;;5072463;28;20861;-74
2021/06/01 00:37:22;;;;;;;9.40;8.43;;;12.70;99.90;;;;;;5071806;28;20483;-74
2021/06/01 00:39:48;;;;;;;9.30;7.90;;;12.70;99.90;;;;;;5072296;28;20446;-75
2021/06/01 00:42:14;;;;;;;10.17;7.50;;;12.70;99.90;;;;;;5072603;28;20487;-74
2021/06/01 00:44:40;;;;;;;9.70;8.33;;;12.80;99.90;;;;;;5072508;28;20484;-75
2021/06/01 00:47:06;;;;;;;9.10;8.20;;;12.80;99.90;;;;;;5072395;28;20451;-74
2021/06/01 00:49:32;;;;;;;9.80;8.30;;;12.80;99.90;;;;;;5072428;28;20447;-74
2021/06/01 00:52:00;;;;;;;11.43;8.03;;;12.80;99.90;;;;;;5072499;28;20474;-74
2021/06/01 00:54:28;;;;;;;9.00;8.13;;;12.80;99.90;;;;;;5072403;28;20506;-74
2021/06/01 00:56:55;;;;;;;8.57;7.77;;;12.80;99.90;;;;;;5072133;28;20538;-74
2021/06/01 00:59:21;;;;;;;8.30;7.47;;;12.80;99.90;;;;;;5072277;28;20535;-74
2021/06/01 01:01:47;;;;;;;12.43;8.53;;;12.70;99.90;;;;;;5072414;28;20479;-74
2021/06/01 01:04:13;;;;;;;11.00;8.90;;;12.60;99.90;;;;;;5072225;28;20554;-75
2021/06/01 01:06:52;;;;;;;9.20;8.20;;;12.60;99.90;;;;;;5072333;28;20440;-75
2021/06/01 01:09:21;;;;;;;8.80;8.00;;;12.50;99.90;;;;;;5072185;28;20443;-74
2021/06/01 01:11:57;;;;;;;9.80;7.83;;;12.50;99.90;;;;;;5072007;28;20860;-75
2021/06/01 01:14:25;;;;;;;10.13;9.00;;;12.50;99.90;;;;;;5072031;28;20443;-74
2021/06/01 01:16:58;;;;;;;10.80;8.93;;;12.50;99.90;;;;;;5072150;28;20577;-74
2021/06/01 01:19:43;;;;;;;10.60;8.77;;;12.50;99.90;;;;;;5072157;28;20534;-74
2021/06/01 01:22:10;;;;;;;14.10;9.43;;;12.40;99.90;;;;;;5056553;28;20450;-75
2021/06/01 01:24:45;;;;;;;9.10;8.27;;;12.40;99.90;;;;;;5072010;28;20542;-74
2021/06/01 01:27:23;;;;;;;9.27;8.33;;;12.40;99.90;;;;;;5072135;28;20452;-74
2021/06/01 01:29:52;;;;;;;13.47;9.40;;;12.40;99.90;;;;;;5072068;28;20447;-74
2021/06/01 01:32:25;;;;;;;13.60;9.63;;;12.40;99.90;;;;;;5072073;28;20467;-74
2021/06/01 01:34:54;;;;;;;10.00;9.00;;;12.40;99.90;;;;;;5071831;28;20528;-75
2021/06/01 01:37:21;;;;;;;10.33;7.70;;;12.40;99.90;;;;;;5072027;28;20443;-75
2021/06/01 01:39:53;;;;;;;9.37;8.10;;;12.40;99.90;;;;;;5071859;28;20534;-74
2021/06/01 01:42:20;;;;;;;10.87;8.93;;;12.40;99.90;;;;;;5072008;28;20443;-74
2021/06/01 01:44:51;;;;;;;9.93;7.80;;;12.30;99.90;;;;;;5071654;28;20452;-74
2021/06/01 01:50:17;;;;;;;15.60;8.83;;;12.30;99.90;;;;;;5058970;28;20436;-74
2021/06/01 01:52:44;;;;;;;9.70;8.70;;;12.30;99.90;;;;;;5075635;28;20451;-74
2021/06/01 01:55:12;;;;;;;8.97;8.10;;;12.30;99.90;;;;;;5075584;28;20566;-74
2021/06/01 01:57:42;;;;;;;8.60;7.70;;;12.30;99.90;;;;;;5075330;28;20516;-74
2021/06/01 02:00:10;;;;;;;10.90;8.80;;;12.30;99.90;;;;;;5075610;28;20478;-75
2021/06/01 02:02:37;;;;;;;11.53;8.77;;;12.30;99.90;;;;;;5075378;28;20447;-74
2021/06/01 02:05:04;;;;;;;11.13;9.10;;;12.20;99.90;;;;;;5075173;28;20502;-75
2021/06/01 02:07:33;;;;;;;9.27;8.37;;;12.20;99.90;;;;;;5075436;28;20507;-75
2021/06/01 02:10:02;;;;;;;11.80;7.77;;;12.20;99.90;;;;;;5075267;28;20907;-75
2021/06/01 02:12:29;;;;;;;10.33;9.10;;;12.20;99.90;;;;;;5075244;28;20440;-75
2021/06/01 02:14:55;;;;;;;9.27;8.37;;;12.10;99.90;;;;;;5075050;28;20471;-76
2021/06/01 02:17:22;;;;;;;10.10;8.20;;;12.10;99.90;;;;;;5075265;28;20442;-75
2021/06/01 02:19:48;;;;;;;10.10;8.30;;;12.10;99.90;;;;;;5075063;28;20482;-76
2021/06/01 02:22:21;;;;;;;10.47;8.73;;;12.10;99.90;;;;;;5074845;28;20727;-74
2021/06/01 02:24:54;;;;;;;11.10;8.67;;;12.10;99.90;;;;;;5074951;28;20451;-75
2021/06/01 02:27:24;;;;;;;10.30;8.17;;;12.10;99.90;;;;;;5074686;28;20447;-75
2021/06/01 02:30:01;;;;;;;10.40;8.87;;;12.10;99.90;;;;;;5075021;28;20443;-75
2021/06/01 02:32:31;;;;;;;10.10;8.50;;;12.10;99.90;;;;;;5074900;28;20522;-74
2021/06/01 02:35:00;;;;;;;9.47;8.50;;;12.00;99.90;;;;;;5074574;28;20528;-74
2021/06/01 02:37:27;;;;;;;11.17;9.37;;;12.00;99.90;;;;;;5074636;28;20455;-74
2021/06/01 02:39:55;;;;;;;10.10;9.10;;;12.10;99.90;;;;;;5074805;28;20479;-73
2021/06/01 02:42:21;;;;;;;10.27;9.20;;;12.00;99.90;;;;;;5074565;28;20993;-74
2021/06/01 02:44:47;;;;;;;11.90;9.37;;;12.00;99.90;;;;;;5072555;28;20539;-74
2021/06/01 02:47:18;;;;;;;10.00;9.00;;;12.00;99.90;;;;;;5074038;28;20490;-74
2021/06/01 02:49:44;;;;;;;9.90;8.37;;;12.00;99.90;;;;;;5074089;28;20532;-74
2021/06/01 02:52:11;;;;;;;9.27;8.20;;;12.00;99.90;;;;;;5073931;28;20454;-73
2021/06/01 02:54:37;;;;;;;11.70;8.97;;;12.10;99.90;;;;;;5071588;28;20889;-74
2021/06/01 02:57:05;;;;;;;9.87;8.60;;;12.10;99.90;;;;;;5073475;28;20486;-74
2021/06/01 02:59:32;;;;;;;10.10;8.37;;;12.10;99.90;;;;;;5073363;28;20542;-73
2021/06/01 03:01:58;;;;;;;10.23;8.30;;;12.10;99.90;;;;;;5069523;28;20456;-76
2021/06/01 03:04:24;;;;;;;12.00;8.93;;;12.10;99.90;;;;;;5070807;28;20490;-75
2021/06/01 03:06:50;;;;;;;11.23;8.77;;;12.00;99.90;;;;;;5070593;28;20847;-75
2021/06/01 03:09:16;;;;;;;9.97;8.93;;;12.10;99.90;;;;;;5070664;28;20538;-74
2021/06/01 03:11:45;;;;;;;14.30;8.97;;;12.10;99.90;;;;;;5071912;28;20526;-74
2021/06/01 03:14:13;;;;;;;8.67;7.77;;;12.10;99.90;;;;;;5070779;28;20447;-76
2021/06/01 03:16:40;;;;;;;9.17;8.10;;;12.10;99.90;;;;;;5073025;28;20525;-74
2021/06/01 03:19:06;;;;;;;11.43;10.00;;;12.10;99.90;;;;;;5073545;28;20502;-75
2021/06/01 03:21:33;;;;;;;13.97;8.63;;;12.10;99.90;;;;;;5073895;28;20444;-74
2021/06/01 03:23:59;;;;;;;15.27;9.20;;;12.10;99.90;;;;;;5073558;28;20539;-75
2021/06/01 03:26:25;;;;;;;14.07;9.33;;;12.10;99.90;;;;;;5073463;28;20440;-74
2021/06/01 03:28:51;;;;;;;12.90;10.40;;;12.20;99.90;;;;;;5078426;28;20442;-74
2021/06/01 03:31:19;;;;;;;10.60;9.40;;;12.20;99.90;;;;;;5079876;28;20998;-74
2021/06/01 03:33:45;;;;;;;9.73;8.73;;;12.20;99.90;;;;;;5073351;28;20467;-75
2021/06/01 03:36:11;;;;;;;11.93;9.30;;;12.20;99.90;;;;;;5073530;28;20826;-75
2021/06/01 03:38:38;;;;;;;10.40;9.30;;;12.20;99.90;;;;;;5073544;28;20644;-74
2021/06/01 03:41:04;;;;;;;10.33;9.23;;;12.30;99.90;;;;;;5073489;28;20447;-74
2021/06/01 03:43:30;;;;;;;10.43;8.63;;;12.30;99.90;;;;;;5073456;28;20505;-74
2021/06/01 03:45:57;;;;;;;11.30;9.40;;;12.30;99.90;;;;;;5073120;28;20911;-75
2021/06/01 03:48:25;;;;;;;9.33;8.43;;;12.40;99.90;;;;;;5073570;28;20462;-74
2021/06/01 03:50:51;;;;;;;10.60;9.27;;;12.50;99.90;;;;;;5073206;28;20479;-74
2021/06/01 03:53:19;;;;;;;10.77;9.67;;;12.50;99.90;;;;;;5073289;28;20443;-74
2021/06/01 03:55:45;;;;;;;10.87;8.97;;;12.60;99.90;;;;;;5072997;28;21002;-74
2021/06/01 03:58:11;;;;;;;12.40;9.57;;;12.70;99.90;;;;;;5073232;28;20475;-74
2021/06/01 04:00:37;;;;;;;11.43;8.90;;;12.80;99.90;;;;;;5072911;28;20450;-75
2021/06/01 04:03:04;;;;;;;12.07;9.83;;;12.90;99.90;;;;;;5073051;28;20455;-75
2021/06/01 04:05:32;;;;;;;11.20;9.83;;;13.00;99.90;;;;;;5072675;28;20530;-74
2021/06/01 04:07:59;;;;;;;13.53;10.40;;;13.10;99.90;;;;;;5072886;28;20460;-74
2021/06/01 04:10:25;;;;;;;10.03;8.97;;;13.10;99.90;;;;;;5072880;28;20426;-74
2021/06/01 04:12:51;;;;;;;12.43;9.33;;;13.30;99.90;;;;;;5072609;28;20476;-74
2021/06/01 04:15:17;;;;;;;11.23;8.90;;;13.50;99.90;;;;;;5072627;28;20566;-75
2021/06/01 04:17:43;;;;;;;11.90;9.73;;;13.60;99.90;;;;;;5073033;28;20544;-74
2021/06/01 04:20:10;;;;;;;9.67;8.57;;;13.80;99.90;;;;;;5072934;28;20475;-74
2021/06/01 04:22:39;;;;;;;11.67;8.60;;;13.90;99.90;;;;;;5073161;28;20579;-74
2021/06/01 04:25:06;;;;;;;13.17;8.90;;;14.00;99.90;;;;;;5072530;28;20498;-74
2021/06/01 04:27:32;;;;;;;9.20;8.17;;;14.20;99.90;;;;;;5072606;28;20961;-74
2021/06/01 04:29:59;;;;;;;11.43;7.97;;;14.40;99.90;;;;;;5072418;28;20489;-74
2021/06/01 04:32:25;;;;;;;9.20;7.93;;;14.50;99.90;;;;;;5072590;28;20930;-74
2021/06/01 04:34:51;;;;;;;9.43;7.63;;;14.70;99.90;;;;;;5072274;28;20955;-75
2021/06/01 04:37:17;;;;;;;15.37;8.93;;;14.90;99.90;;;;;;5072532;28;20483;-74
2021/06/01 04:39:44;;;;;;;10.63;8.63;;;15.10;99.90;;;;;;5072373;28;20447;-75
2021/06/01 04:42:10;;;;;;;8.37;7.57;;;15.30;99.90;;;;;;5072517;28;20501;-75
2021/06/01 04:44:36;;;;;;;8.53;7.53;;;15.50;99.90;;;;;;5072351;28;20450;-75
2021/06/01 04:47:03;;;;;;;11.47;7.30;;;15.60;99.90;;;;;;5072584;28;20490;-74
2021/06/01 04:49:29;;;;;;;9.87;7.40;;;15.70;99.90;;;;;;5072464;28;20548;-75
2021/06/01 04:51:55;;;;;;;9.60;7.70;;;15.80;99.90;;;;;;5072404;28;20977;-75
2021/06/01 04:54:21;;;;;;;7.60;6.70;;;16.00;99.90;;;;;;5072457;28;20600;-75
2021/06/01 04:56:48;;;;;;;9.00;6.80;;;16.10;99.90;;;;;;5072158;28;20539;-75
2021/06/01 04:59:14;;;;;;;8.57;6.93;;;16.30;99.90;;;;;;5072742;28;20500;-75
2021/06/01 05:01:40;;;;;;;8.83;6.77;;;16.40;99.90;;;;;;5072439;28;20475;-75
2021/06/01 05:04:06;;;;;;;9.03;8.00;;;16.50;99.90;;;;;;5072202;28;20499;-75
2021/06/01 05:06:33;;;;;;;9.60;8.53;;;16.60;99.90;;;;;;5068944;28;20452;-75
2021/06/01 05:08:59;;;;;;;10.87;7.80;;;16.80;99.90;;;;;;5063348;28;20447;-75
2021/06/01 05:11:25;;;;;;;11.03;7.87;;;16.80;99.90;;;;;;5072207;28;20448;-75
2021/06/01 05:13:52;;;;;;;8.17;7.37;;;17.00;99.90;;;;;;5070749;28;20475;-75
2021/06/01 05:16:21;;;;;;;9.80;8.03;;;17.10;99.90;;;;;;5072126;28;20518;-75
2021/06/01 05:18:47;;;;;;;8.90;6.60;;;17.20;99.90;;;;;;5072227;28;20483;-75
2021/06/01 05:21:14;;;;;;;7.90;7.20;;;17.30;99.90;;;;;;5072213;28;20455;-75
2021/06/01 05:23:40;;;;;;;9.10;7.43;;;17.40;99.90;;;;;;5072435;28;21029;-75
2021/06/01 05:26:07;;;;;;;10.73;9.17;;;17.40;99.90;;;;;;5075916;28;20878;-75
2021/06/01 05:28:34;;;;;;;9.20;6.60;;;17.50;99.90;;;;;;5076102;28;20538;-75
2021/06/01 05:31:09;;;;;;;11.37;7.60;;;17.60;99.90;;;;;;5075994;28;20450;-75
2021/06/01 05:33:36;;;;;;;8.73;7.37;;;17.60;99.90;;;;;;5076065;28;20492;-74
2021/06/01 05:36:03;;;;;;;9.90;8.87;;;17.80;99.90;;;;;;5059039;28;20475;-75
2021/06/01 05:38:32;;;;;;;10.50;8.00;;;17.80;99.90;;;;;;5075624;28;20451;-75
2021/06/01 05:40:59;;;;;;;8.80;7.17;;;18.00;99.90;;;;;;5075489;28;20443;-75
2021/06/01 05:43:29;;;;;;;10.97;8.13;;;18.10;99.90;;;;;;5075611;28;21019;-75
2021/06/01 05:45:55;;;;;;;9.20;7.07;;;18.20;99.90;;;;;;5075477;28;20439;-75
2021/06/01 05:48:22;;;;;;;9.70;8.10;;;18.30;99.90;;;;;;5075652;28;20532;-75
2021/06/01 05:50:48;;;;;;;9.60;7.60;;;18.40;99.90;;;;;;5075343;28;20443;-75
2021/06/01 05:53:16;;;;;;;9.13;8.17;;;18.50;99.90;;;;;;5075480;28;20457;-75
2021/06/01 05:55:42;;;;;;;7.23;6.47;;;18.60;99.90;;;;;;5075227;28;20561;-75
2021/06/01 05:58:08;;;;;;;8.30;7.50;;;18.70;99.90;;;;;;5075585;28;20879;-75
2021/06/01 06:00:34;;;;;;;9.87;6.93;;;18.80;99.90;;;;;;5075339;28;20908;-75
2021/06/01 06:03:02;;;;;;;9.10;7.10;;;19.00;99.90;;;;;;5075263;28;20448;-75
2021/06/01 06:05:30;;;;;;;13.03;8.80;;;19.10;99.90;;;;;;5074924;28;21009;-75
2021/06/01 06:08:04;;;;;;;9.50;7.13;;;19.10;99.90;;;;;;5075265;28;20445;-75
2021/06/01 06:10:30;;;;;;;11.80;7.30;;;19.20;99.90;;;;;;5075292;28;20451;-76
2021/06/01 06:12:56;;;;;;;8.90;7.37;;;19.30;99.90;;;;;;5075077;28;21198;-83
2021/06/01 06:15:24;;;;;;;9.07;7.10;;;19.40;99.90;;;;;;5075075;28;20554;-83
2021/06/01 06:17:56;;;;;;;7.67;6.87;;;19.50;99.90;;;;;;5074978;28;20545;-87
2021/06/01 06:20:23;;;;;;;7.70;6.93;;;19.50;99.90;;;;;;5075049;28;20443;-88
2021/06/01 06:22:50;;;;;;;8.10;7.03;;;19.60;99.90;;;;;;5072439;28;21079;-85
2021/06/01 06:25:16;;;;;;;8.57;7.70;;;19.80;99.90;;;;;;5067907;28;20878;-90
2021/06/01 06:27:42;;;;;;;7.43;6.70;;;20.10;99.90;;;;;;5075286;28;20982;-88
2021/06/01 06:30:10;;;;;;;10.10;7.80;;;20.30;99.90;;;;;;5075235;28;21060;-88
2021/06/01 06:32:37;;;;;;;10.23;7.93;;;20.60;99.90;;;;;;5073279;28;21143;-88
2021/06/01 06:35:04;;;;;;;7.00;6.40;;;20.90;99.90;;;;;;5072729;28;20454;-89
2021/06/01 06:37:30;;;;;;;8.57;7.67;;;21.00;99.90;;;;;;5073154;28;20451;-89
2021/06/01 06:39:58;;;;;;;9.47;7.23;;;21.30;99.90;;;;;;5074614;28;20984;-89
2021/06/01 06:42:24;;;;;;;8.80;6.87;;;21.70;99.90;;;;;;5073966;28;20451;-89
2021/06/01 06:44:51;;;;;;;8.40;7.50;;;22.00;99.90;;;;;;5074569;28;20475;-89
2021/06/01 06:47:23;;;;;;;14.80;7.63;;;22.30;99.90;;;;;;5074043;28;20447;-88
2021/06/01 06:49:49;;;;;;;7.13;6.23;;;22.60;99.90;;;;;;5075232;28;20490;-89
2021/06/01 06:52:15;;;;;;;9.40;6.87;;;22.70;99.90;;;;;;5074849;28;20972;-89
2021/06/01 06:54:42;;;;;;;10.00;8.07;;;23.00;99.90;;;;;;5074871;28;21013;-88
2021/06/01 06:57:10;;;;;;;8.93;6.80;;;23.30;99.90;;;;;;5074900;28;21065;-89
2021/06/01 06:59:36;;;;;;;8.23;6.67;;;23.60;99.90;;;;;;5074809;28;20455;-89
2021/06/01 07:02:02;;;;;;;6.70;6.00;;;23.90;99.90;;;;;;5074820;28;20475;-89
2021/06/01 07:04:28;;;;;;;14.70;7.87;;;24.20;99.90;;;;;;5074673;28;20546;-89
2021/06/01 07:06:54;;;;;;;7.77;6.23;;;24.40;99.90;;;;;;5074906;28;20451;-89
2021/06/01 07:09:21;;;;;;;7.60;5.87;;;24.60;99.90;;;;;;5074648;28;20946;-89
2021/06/01 07:11:47;;;;;;;7.50;6.47;;;24.90;99.90;;;;;;5074812;28;20462;-89
2021/06/01 07:14:31;;;;;;;6.90;5.63;;;25.10;99.90;;;;;;5074595;28;20914;-89
2021/06/01 07:16:57;;;;;;;7.17;5.83;;;25.10;99.90;;;;;;5074966;28;20502;-89
2021/06/01 07:19:23;;;;;;;6.33;5.37;;;25.10;99.90;;;;;;5075001;28;20550;-89
2021/06/01 07:21:49;;;;;;;6.07;5.40;;;25.10;99.90;;;;;;5074272;28;20451;-89
2021/06/01 07:24:15;;;;;;;8.90;5.73;;;25.10;99.90;;;;;;5074250;28;20455;-89
2021/06/01 07:26:41;;;;;;;7.10;5.57;;;25.00;99.90;;;;;;5074098;28;20443;-89
2021/06/01 07:29:07;;;;;;;7.00;5.77;;;24.80;99.90;;;;;;5074588;28;20450;-89
2021/06/01 07:31:35;;;;;;;7.90;4.70;;;24.70;99.90;;;;;;5074581;28;20459;-89
2021/06/01 07:34:01;;;;;;;4.93;4.23;;;24.70;99.90;;;;;;5074259;28;20494;-88
2021/06/01 07:36:27;;;;;;;5.87;5.20;;;24.80;99.90;;;;;;5073982;28;21088;-89
2021/06/01 07:38:53;;;;;;;5.30;4.83;;;24.90;99.90;;;;;;5073903;28;20452;-89
2021/06/01 07:41:19;;;;;;;7.57;5.27;;;24.90;99.90;;;;;;5073882;28;21051;-88
2021/06/01 07:43:45;;;;;;;7.87;5.70;;;24.90;99.90;;;;;;5073906;28;20542;-89
2021/06/01 07:46:11;;;;;;;8.27;5.60;;;24.90;99.90;;;;;;5073868;28;20452;-89
2021/06/01 07:48:39;;;;;;;7.30;5.47;;;24.90;99.90;;;;;;5073606;28;20479;-88
2021/06/01 07:51:10;;;;;;;5.23;4.73;;;24.90;99.90;;;;;;5073850;28;20463;-90
2021/06/01 07:53:36;;;;;;;5.70;4.83;;;24.90;99.90;;;;;;5073736;28;20535;-90
2021/06/01 07:56:03;;;;;;;4.90;4.50;;;24.80;99.90;;;;;;5073749;28;20971;-89
2021/06/01 07:58:29;;;;;;;5.30;4.50;;;24.70;99.90;;;;;;5073757;28;20542;-89
2021/06/01 08:00:55;;;;;;;5.13;4.67;;;24.60;99.90;;;;;;5073854;28;20539;-89
2021/06/01 08:03:21;;;;;;;5.37;4.63;;;24.60;99.90;;;;;;5073555;28;20546;-89
2021/06/01 08:05:48;;;;;;;5.20;4.43;;;24.70;99.90;;;;;;5073521;28;20970;-89
2021/06/01 08:08:14;;;;;;;4.73;4.17;;;24.70;99.90;;;;;;5073588;28;20926;-89
2021/06/01 08:10:40;;;;;;;5.07;4.27;;;24.80;99.90;;;;;;5073759;28;20497;-89
2021/06/01 08:13:06;;;;;;;7.20;4.83;;;24.90;99.90;;;;;;5073704;28;20458;-89
2021/06/01 08:15:33;;;;;;;6.67;4.33;;;24.90;99.90;;;;;;5073876;28;20986;-89
2021/06/01 08:18:01;;;;;;;6.77;4.20;;;24.90;99.90;;;;;;5073498;28;20494;-89
2021/06/01 08:20:32;;;;;;;4.23;3.90;;;24.70;99.90;;;;;;5073397;28;20500;-89
2021/06/01 08:22:59;;;;;;;3.70;3.27;;;24.60;99.90;;;;;;5073215;28;20465;-89
2021/06/01 08:25:26;;;;;;;3.57;3.33;;;24.70;99.90;;;;;;5073490;28;21001;-88
2021/06/01 08:27:52;;;;;;;6.37;4.00;;;24.90;99.90;;;;;;5073256;28;20538;-88
2021/06/01 08:30:19;;;;;;;6.00;3.40;;;25.00;99.90;;;;;;5073737;28;20890;-88
2021/06/01 08:32:45;;;;;;;5.33;3.50;;;25.10;99.90;;;;;;5073442;28;20512;-88
2021/06/01 08:35:12;;;;;;;4.20;3.90;;;25.20;99.90;;;;;;5073750;28;20865;-88
2021/06/01 08:37:39;;;;;;;4.47;3.60;;;25.20;99.90;;;;;;5072843;28;20451;-89
2021/06/01 08:40:08;;;;;;;4.07;3.77;;;25.10;99.90;;;;;;5072897;28;20799;-89
2021/06/01 08:42:35;;;;;;;5.93;4.10;;;25.10;99.90;;;;;;5073118;28;20508;-89
2021/06/01 08:45:03;;;;;;;4.43;4.10;;;25.10;99.90;;;;;;5073159;28;20450;-88
2021/06/01 08:47:30;;;;;;;4.50;4.20;;;25.10;99.90;;;;;;5073112;28;20474;-88
2021/06/01 08:49:59;;;;;;;6.07;4.43;;;25.20;99.90;;;;;;5073500;28;20475;-88
2021/06/01 08:52:25;;;;;;;5.97;4.33;;;25.30;99.90;;;;;;5072802;28;20443;-88
2021/06/01 08:54:53;;;;;;;4.23;4.03;;;25.30;99.40;;;;;;5073168;28;20946;-88
2021/06/01 08:57:21;;;;;;;4.30;3.90;;;25.50;99.90;;;;;;5073129;28;20891;-88
2021/06/01 08:59:47;;;;;;;3.83;3.53;;;25.60;99.90;;;;;;5075349;28;20455;-88
2021/06/01 09:02:19;;;;;;;4.10;3.77;;;25.80;99.20;;;;;;5076999;28;20493;-88
2021/06/01 09:04:50;;;;;;;7.30;3.20;;;26.00;97.30;;;;;;5076923;28;20525;-89
2021/06/01 09:07:24;;;;;;;3.73;3.43;;;26.00;96.00;;;;;;5077529;28;20455;-88
2021/06/01 09:10:09;;;;;;;4.97;3.80;;;26.00;95.00;;;;;;5077453;28;20454;-88
2021/06/01 09:12:54;;;;;;;5.00;4.60;;;25.80;94.10;;;;;;5077268;28;20447;-88
2021/06/01 09:15:36;;;;;;;4.43;3.50;;;25.70;93.40;;;;;;5076570;28;20443;-89
2021/06/01 09:21:07;;;;;;;4.17;3.30;;;25.80;93.40;;;;;;5077198;28;20575;-88
2021/06/01 09:23:48;;;;;;;3.93;3.47;;;26.10;91.40;;;;;;5076481;28;20451;-89
2021/06/01 09:27:00;;;;;;;5.67;3.30;;;26.30;90.30;;;;;;5076973;28;20483;-88
2021/06/01 09:29:30;;;;;;;2.93;2.73;;;26.40;89.30;;;;;;5068055;28;20446;-88
2021/06/01 09:32:08;;;;;;;5.77;2.93;;;26.60;89.20;;;;;;5077119;28;20455;-88
2021/06/01 09:34:36;;;;;;;3.57;2.83;;;26.70;89.70;;;;;;5076655;28;20972;-88
2021/06/01 09:37:22;;;;;;;6.37;3.20;;;26.80;90.00;;;;;;5076554;28;20510;-89
2021/06/01 09:40:10;;;;;;;3.50;3.20;;;27.00;90.30;;;;;;5076720;28;20501;-88
2021/06/01 09:42:38;;;;;;;6.90;3.13;;;27.30;90.80;;;;;;5076758;28;20847;-88
2021/06/01 09:45:08;;;;;;;3.97;3.67;;;27.50;91.00;;;;;;5076426;28;20483;-89
2021/06/01 09:47:53;;;;;;;3.97;3.30;;;27.70;89.30;;;;;;5076319;28;20479;-89
2021/06/01 09:50:26;;;;;;;4.13;3.83;;;27.60;88.80;;;;;;5076180;28;20443;-89
2021/06/01 09:52:56;;;;;;;5.37;3.43;;;27.20;87.10;;;;;;5076709;28;20912;-88
2021/06/01 09:55:27;;;;;;;4.33;3.53;;;27.00;88.00;;;;;;5076380;28;20450;-88
2021/06/01 09:57:54;;;;;;;4.30;3.60;;;26.90;88.20;;;;;;5076024;28;20463;-88
2021/06/01 10:00:24;;;;;;;4.23;3.83;;;26.80;88.30;;;;;;5075828;28;20453;-88
2021/06/01 10:02:53;;;;;;;3.70;3.40;;;26.70;88.30;;;;;;5076002;28;20470;-88
2021/06/01 10:05:22;;;;;;;7.37;4.00;;;26.50;88.10;;;;;;5075848;28;20481;-89
2021/06/01 10:07:50;;;;;;;3.87;3.53;;;26.50;90.00;;;;;;5076234;28;20450;-89
2021/06/01 10:10:19;;;;;;;4.30;3.80;;;26.40;88.60;;;;;;5075358;28;20942;-88
2021/06/01 10:12:47;;;;;;;5.23;3.43;;;26.30;88.10;;;;;;5075890;28;20482;-88
2021/06/01 10:15:14;;;;;;;5.40;4.10;;;26.30;85.80;;;;;;5075702;28;20450;-88
2021/06/01 10:17:42;;;;;;;3.80;3.40;;;26.20;86.50;;;;;;5075471;28;20483;-88
2021/06/01 10:20:09;;;;;;;3.60;3.27;;;26.20;86.20;;;;;;5075858;28;20546;-87
2021/06/01 10:22:36;;;;;;;3.37;3.07;;;26.00;85.30;;;;;;5076226;28;20525;-88
2021/06/01 10:25:03;;;;;;;4.50;3.13;;;26.10;83.20;;;;;;5075890;28;20528;-88
2021/06/01 10:27:29;;;;;;;5.20;3.27;;;26.10;83.80;;;;;;5075650;28;20458;-89
2021/06/01 10:29:55;;;;;;;3.50;3.20;;;26.20;83.70;;;;;;5075856;28;20538;-88
2021/06/01 10:32:22;;;;;;;2.57;2.37;;;26.40;83.70;;;;;;5075868;28;20455;-89
2021/06/01 10:34:51;;;;;;;6.50;2.53;;;26.50;75.50;;;;;;5075540;28;20451;-88
2021/06/01 10:48:58;;;;;;;1.93;1.83;;;26.90;67.50;;;;;;5075320;28;20446;-89
2021/06/01 10:51:28;;;;;;;3.63;2.23;;;26.80;65.80;;;;;;5075363;28;20482;-88
2021/06/01 10:53:55;;;;;;;2.00;1.90;;;26.80;66.70;;;;;;5075073;28;20458;-88
2021/06/01 10:56:22;;;;;;;2.10;2.00;;;26.90;66.50;;;;;;5075184;28;20513;-88
2021/06/01 10:59:03;;;;;;;3.20;2.40;;;27.00;66.90;;;;;;5075144;28;20491;-89
2021/06/01 11:04:18;;;;;;;2.73;2.53;;;26.90;68.10;;;;;;5074653;28;20993;-89
2021/06/01 11:07:26;;;;;;;3.03;2.33;;;26.80;67.30;;;;;;5074967;28;20487;-88
2021/06/01 11:09:53;;;;;;;4.40;2.60;;;26.60;67.30;;;;;;5074577;28;20446;-88
2021/06/01 11:12:43;;;;;;;2.80;2.60;;;26.60;69.30;;;;;;5074922;28;20985;-89
2021/06/01 11:15:30;;;;;;;2.43;2.23;;;26.80;69.90;;;;;;5074570;28;20538;-88
2021/06/01 11:18:24;;;;;;;3.20;3.00;;;26.90;71.00;;;;;;5074996;28;20471;-89
2021/06/01 11:21:28;;;;;;;3.43;2.60;;;27.00;70.00;;;;;;5074539;28;20450;-89
2021/06/01 11:24:36;;;;;;;3.00;2.80;;;27.30;71.10;;;;;;5074399;28;20964;-89
2021/06/01 11:35:44;;;;;;;3.00;2.80;;;28.00;69.20;;;;;;5074636;28;20440;-89
2021/06/01 11:38:17;;;;;;;3.27;2.77;;;27.80;69.10;;;;;;5074412;28;20439;-88
2021/06/01 11:41:02;;;;;;;2.57;2.37;;;27.70;67.50;;;;;;5071506;28;20452;-90
2021/06/01 11:43:29;;;;;;;2.70;2.50;;;27.70;67.50;;;;;;5074242;28;20534;-84
2021/06/01 11:46:04;;;;;;;2.40;2.20;;;27.40;65.90;;;;;;5073929;28;20465;-86
2021/06/01 11:51:17;;;;;;;3.47;2.70;;;27.00;62.10;;;;;;5073471;28;20968;-86
2021/06/01 11:53:52;;;;;;;4.43;2.80;;;26.90;63.30;;;;;;5073366;28;20451;-87
2021/06/01 11:56:41;;;;;;;3.50;2.10;;;26.90;63.00;;;;;;5073298;28;20497;-84
2021/06/01 12:02:12;;;;;;;2.40;2.20;;;26.60;62.90;;;;;;5064204;28;20446;-86
2021/06/01 12:04:49;;;;;;;2.23;1.90;;;26.20;63.90;;;;;;5060652;28;20922;-86
2021/06/01 12:12:56;;;;;;;2.83;2.63;;;25.40;65.20;;;;;;5073110;28;20432;-85
2021/06/01 12:18:18;;;;;;;6.60;2.53;;;25.20;67.80;;;;;;5039865;28;20444;-86
2021/06/01 12:20:44;;;;;;;5.90;2.47;;;25.10;66.30;;;;;;5072671;28;20452;-85
2021/06/01 12:23:29;;;;;;;4.70;2.50;;;25.00;65.60;;;;;;5072836;28;20530;-86
2021/06/01 12:26:06;;;;;;;5.10;2.30;;;25.00;66.00;;;;;;5065158;28;20478;-85
2021/06/01 12:31:23;;;;;;;2.70;2.43;;;24.90;65.80;;;;;;5072716;28;20554;-85
2021/06/01 12:33:59;;;;;;;4.53;2.63;;;24.90;67.10;;;;;;5072557;28;20447;-85
2021/06/01 12:37:26;;;;;;;2.43;2.33;;;25.00;68.70;;;;;;5072478;28;20474;-85
2021/06/01 12:43:02;;;;;;;2.40;2.20;;;25.20;67.70;;;;;;5072597;28;20957;-85
2021/06/01 12:46:01;;;;;;;2.63;2.43;;;25.20;67.20;;;;;;5057766;28;20451;-85
2021/06/01 13:12:36;;;;;;;2.70;2.17;;;24.90;64.30;;;;;;5061546;28;20591;-85
2021/06/01 13:20:51;;;;;;;1.70;1.60;;;25.30;64.10;;;;;;5071899;28;20446;-86
2021/06/01 13:32:07;;;;;;;1.43;1.33;;;25.10;57.40;;;;;;5058146;28;20454;-86
2021/06/01 13:37:48;;;;;;;2.30;1.43;;;25.00;57.30;;;;;;5055236;28;20478;-86
2021/06/01 13:40:23;;;;;;;1.20;1.10;;;25.20;58.10;;;;;;5071667;28;20474;-85
2021/06/01 13:46:00;;;;;;;1.50;1.20;;;25.10;55.20;;;;;;5060535;28;20474;-85
2021/06/01 13:48:44;;;;;;;2.97;1.10;;;25.00;56.50;;;;;;5075562;28;20543;-86
2021/06/01 13:51:26;;;;;;;2.70;1.23;;;25.20;55.70;;;;;;5075413;28;20496;-84
2021/06/01 13:56:38;;;;;;;3.30;1.50;;;25.30;55.20;;;;;;5075256;28;20474;-85
2021/06/01 13:59:08;;;;;;;1.40;1.30;;;25.20;54.50;;;;;;5075522;28;20447;-87
2021/06/01 14:01:53;;;;;;;1.37;1.27;;;25.10;53.70;;;;;;5075682;28;20447;-86
2021/06/01 14:09:54;;;;;;;1.53;1.13;;;25.30;54.10;;;;;;5075443;28;20447;-87
2021/06/01 14:15:23;;;;;;;7.67;1.33;;;25.50;52.90;;;;;;5074934;28;20957;-87
2021/06/01 14:32:08;;;;;;;2.10;1.10;;;26.00;50.80;;;;;;5020299;28;20445;-87
2021/06/01 14:37:41;;;;;;;2.00;0.80;;;25.80;50.00;;;;;;5074984;28;20470;-86
2021/06/01 14:54:42;;;;;;;1.10;1.00;;;25.60;49.40;;;;;;5074298;28;20443;-85
2021/06/01 15:49:49;;;;;;;2.70;1.67;;;25.90;54.40;;;;;;5065757;28;20466;-86
2021/06/01 15:52:45;;;;;;;1.70;1.43;;;25.80;55.00;;;;;;5073180;28;20448;-75
2021/06/01 16:14:53;;;;;;;4.30;3.60;;;22.70;89.90;;;;;;5066817;28;20436;-75
2021/06/01 16:22:57;;;;;;;3.30;3.00;;;22.00;90.80;;;;;;5070715;28;20917;-76
2021/06/01 16:31:23;;;;;;;3.00;2.80;;;21.90;91.40;;;;;;5071046;28;20419;-76
2021/06/01 16:42:21;;;;;;;3.27;3.03;;;21.70;92.80;;;;;;5072376;28;20438;-79
2021/06/01 17:04:09;;;;;;;3.80;3.50;;;21.60;94.40;;;;;;5072098;28;20471;-76